Aviation Digital Data Service (ADDS)

Output produced by METARs form (2337 UTC 26 May 2018)
found at http://aviationweather.gov/adds/metars/
 
KDUJ 262320Z 2700/2724 24005KT P6SM VCSH BKN050 
     FM270200 24007KT P6SM VCSH OVC035 
     FM270900 00000KT 5SM BR BKN025 
     FM271300 00000KT P6SM VCSH BKN020 
     FM271600 00000KT P6SM VCSH BKN035